Aviation Digital Data Service (ADDS)

Output produced by METARs form (2234 UTC 24 November 2014)
found at http://aviationweather.gov/adds/metars/
 
KHPN 242218Z 2422/2518 17012G18KT P6SM SCT008 WS016/25050KT 
     FM250200 23010KT P6SM BKN040 BKN250 WS016/25050KT 
     FM250500 25007KT P6SM BKN040 BKN250 
     FM250900 28006KT P6SM FEW020 BKN250 
     FM251400 29012G20KT P6SM BKN250 AMD NOT SKED